Time;durP1;ratioP1;P1;durP2;ratioP2;P2;SDS_P1;SDS_P2;PMS_P1;PMS_P2;Temp;Humidity;BMP_temperature;BMP_pressure;BME280_temperature;BME280_humidity;BME280_pressure;Samples;Min_cycle;Max_cycle;Signal;HPM_P1;HPM_P2
2022/07/28 00:02:14;;;;;;;;;4.00;4.00;;;;;-145.45;100.00;57426.63;5094549;27;45260;-72
2022/07/28 00:04:39;;;;;;;;;8.00;5.33;;;;;-145.45;100.00;57426.63;5083508;27;45481;-73
2022/07/28 00:07:05;;;;;;;;;5.00;5.00;;;;;-145.45;100.00;57426.63;5066633;27;45268;-73
2022/07/28 00:09:30;;;;;;;;;7.00;7.00;;;;;-145.45;100.00;57426.63;5082242;27;45525;-73
2022/07/28 00:11:55;;;;;;;;;6.00;6.00;;;;;-145.45;100.00;57426.63;5065661;28;47037;-73
2022/07/28 00:14:22;;;;;;;;;8.67;8.00;;;;;-145.45;100.00;57426.63;5080363;27;45347;-73
2022/07/28 00:16:47;;;;;;;;;9.67;7.00;;;;;-145.45;100.00;57426.63;5076831;27;45460;-73
2022/07/28 00:19:13;;;;;;;;;9.33;7.00;;;;;-145.45;100.00;57426.63;5082190;27;45509;-73
2022/07/28 00:21:38;;;;;;;;;7.33;7.33;;;;;-145.45;100.00;57426.63;5084438;27;45466;-73
2022/07/28 00:24:03;;;;;;;;;10.00;8.33;;;;;-145.45;100.00;57426.63;5089064;27;45326;-73
2022/07/28 00:26:29;;;;;;;;;10.00;9.00;;;;;-145.45;100.00;57426.63;5086113;27;45304;-73
2022/07/28 00:28:55;;;;;;;;;15.00;10.00;;;;;-145.45;100.00;57426.63;5086459;27;45435;-72
2022/07/28 00:31:20;;;;;;;;;10.33;10.33;;;;;-145.45;100.00;57426.63;5090529;27;49947;-73
2022/07/28 00:33:45;;;;;;;;;11.33;10.00;;;;;-145.45;100.00;57426.63;5089572;27;45390;-73
2022/07/28 00:36:12;;;;;;;;;11.00;8.67;;;;;-145.45;100.00;57426.63;5094888;27;45340;-73
2022/07/28 00:38:37;;;;;;;;;14.00;11.00;;;;;-145.45;100.00;57426.63;5088933;27;45570;-73
2022/07/28 00:41:11;;;;;;;;;11.67;11.00;;;;;-145.45;100.00;57426.63;5090179;27;45402;-73
2022/07/28 00:43:38;;;;;;;;;12.33;12.00;;;;;-145.45;100.00;57426.63;5090435;27;45273;-74
2022/07/28 00:46:03;;;;;;;;;14.00;10.00;;;;;-145.45;100.00;57426.63;5090390;27;45300;-73
2022/07/28 00:48:29;;;;;;;;;15.00;13.00;;;;;-145.45;100.00;57426.63;5090077;27;45575;-73
2022/07/28 00:50:54;;;;;;;;;11.67;11.00;;;;;-145.45;100.00;57426.63;5091375;27;45475;-73
2022/07/28 00:53:21;;;;;;;;;14.00;11.00;;;;;-145.45;100.00;57426.63;5089142;27;45228;-73
2022/07/28 00:55:47;;;;;;;;;13.67;12.00;;;;;-145.45;100.00;57426.63;5090876;27;45521;-73
2022/07/28 00:58:12;;;;;;;;;15.00;13.00;;;;;-145.45;100.00;57426.63;5083125;27;45477;-73
2022/07/28 01:00:38;;;;;;;;;11.67;10.33;;;;;-145.45;100.00;57426.63;5086933;27;45494;-73
2022/07/28 01:03:05;;;;;;;;;14.33;12.67;;;;;-145.45;100.00;57426.63;5065709;28;45356;-73
2022/07/28 01:05:42;;;;;;;;;10.00;9.67;;;;;-145.45;100.00;57426.63;5087571;27;45422;-72
2022/07/28 01:08:22;;;;;;;;;10.00;10.00;;;;;-145.45;100.00;57426.63;5084907;27;45330;-73
2022/07/28 01:11:00;;;;;;;;;12.33;10.67;;;;;-145.45;100.00;57426.63;5092221;27;45296;-73
2022/07/28 01:13:39;;;;;;;;;13.00;10.33;;;;;-145.45;100.00;57426.63;5086871;27;45316;-73
2022/07/28 01:16:06;;;;;;;;;7.33;7.33;;;;;-145.45;100.00;57426.63;5098092;27;45303;-72
2022/07/28 01:18:38;;;;;;;;;7.00;7.00;;;;;-145.45;100.00;57426.63;5084115;27;45348;-73
2022/07/28 01:21:12;;;;;;;;;5.67;5.67;;;;;-145.45;100.00;57426.63;5092358;27;45429;-73
2022/07/28 01:24:06;;;;;;;;;5.67;5.33;;;;;-145.45;100.00;57426.63;5082117;27;45642;-73
2022/07/28 01:26:47;;;;;;;;;6.33;6.33;;;;;-145.45;100.00;57426.63;5089758;27;45616;-73
2022/07/28 01:29:42;;;;;;;;;6.00;6.00;;;;;-145.45;100.00;57426.63;5080410;27;45809;-73
2022/07/28 01:32:15;;;;;;;;;4.33;4.33;;;;;-145.45;100.00;57426.63;5072585;28;48129;-72
2022/07/28 01:34:49;;;;;;;;;8.00;5.00;;;;;-145.45;100.00;57426.63;5088961;27;45556;-73
2022/07/28 01:37:19;;;;;;;;;5.00;5.00;;;;;-145.45;100.00;57426.63;5094594;27;45279;-73
2022/07/28 01:39:46;;;;;;;;;4.33;4.00;;;;;-145.45;100.00;57426.63;5085195;27;45301;-73
2022/07/28 01:42:12;;;;;;;;;5.00;5.00;;;;;-145.45;100.00;57426.63;5096131;27;45314;-73
2022/07/28 01:44:42;;;;;;;;;4.00;4.00;;;;;-145.45;100.00;57426.63;5099594;27;45247;-73
2022/07/28 01:47:09;;;;;;;;;5.67;4.00;;;;;-145.45;100.00;57426.63;5090047;27;45417;-73
2022/07/28 01:49:36;;;;;;;;;1.33;1.33;;;;;-145.45;100.00;57426.63;5084258;27;45332;-73
2022/07/28 01:52:06;;;;;;;;;3.00;3.00;;;;;-145.45;100.00;57426.63;5091610;27;46344;-73
2022/07/28 01:54:36;;;;;;;;;2.67;2.67;;;;;-145.45;100.00;57426.63;5083992;27;45422;-73
2022/07/28 01:57:04;;;;;;;;;3.00;2.33;;;;;-145.45;100.00;57426.63;5085205;27;45230;-73
2022/07/28 01:59:30;;;;;;;;;2.33;2.00;;;;;-145.45;100.00;57426.63;5083755;27;45437;-73
2022/07/28 02:01:59;;;;;;;;;3.00;3.00;;;;;-145.45;100.00;57426.63;5096225;27;46496;-73
2022/07/28 02:04:26;;;;;;;;;1.67;1.67;;;;;-145.45;100.00;57426.63;5081658;27;45792;-73
2022/07/28 02:06:54;;;;;;;;;4.67;2.00;;;;;-145.45;100.00;57426.63;5087040;27;45336;-73
2022/07/28 02:09:21;;;;;;;;;3.33;3.33;;;;;-145.45;100.00;57426.63;5083042;27;45269;-73
2022/07/28 02:11:51;;;;;;;;;3.00;2.00;;;;;-145.45;100.00;57426.63;5089347;27;45319;-73
2022/07/28 02:14:21;;;;;;;;;2.00;2.00;;;;;-145.45;100.00;57426.63;5082182;27;45455;-72
2022/07/28 02:16:50;;;;;;;;;5.67;3.00;;;;;-145.45;100.00;57426.63;5093483;27;45478;-73
2022/07/28 02:19:18;;;;;;;;;4.00;3.00;;;;;-145.45;100.00;57426.63;5094953;27;45406;-73
2022/07/28 02:21:46;;;;;;;;;3.00;3.00;;;;;-145.45;100.00;57426.63;5091334;27;45492;-73
2022/07/28 02:24:13;;;;;;;;;3.67;2.00;;;;;-145.45;100.00;57426.63;5079789;27;45404;-73
2022/07/28 02:26:45;;;;;;;;;2.00;2.00;;;;;-145.45;100.00;57426.63;5095229;27;45401;-73
2022/07/28 02:29:13;;;;;;;;;3.00;3.00;;;;;-145.45;100.00;57426.63;5088760;27;45268;-73
2022/07/28 02:32:03;;;;;;;;;3.00;2.33;;;;;-145.45;100.00;57426.63;5073537;27;45754;-73
2022/07/28 02:34:30;;;;;;;;;3.00;3.00;;;;;-145.45;100.00;57426.63;5088905;27;45255;-73
2022/07/28 02:36:59;;;;;;;;;6.33;3.00;;;;;-145.45;100.00;57426.63;5096041;27;45331;-73
2022/07/28 02:39:30;;;;;;;;;2.67;2.67;;;;;-145.45;100.00;57426.63;5085759;27;45392;-73
2022/07/28 02:42:03;;;;;;;;;3.33;2.67;;;;;-145.45;100.00;57426.63;5089215;27;46196;-73
2022/07/28 02:44:34;;;;;;;;;2.00;2.00;;;;;-145.45;100.00;57426.63;5082803;27;45537;-73
2022/07/28 02:47:00;;;;;;;;;3.67;3.67;;;;;-145.45;100.00;57426.63;5085269;27;45364;-73
2022/07/28 02:49:32;;;;;;;;;3.00;2.00;;;;;-145.45;100.00;57426.63;5080439;27;45304;-73
2022/07/28 02:52:00;;;;;;;;;3.00;3.00;;;;;-145.45;100.00;57426.63;5083506;27;45315;-73
2022/07/28 02:54:27;;;;;;;;;4.00;3.00;;;;;-145.45;100.00;57426.63;5082378;27;45292;-73
2022/07/28 02:56:54;;;;;;;;;3.00;3.00;;;;;-145.45;100.00;57426.63;5083094;27;45352;-73
2022/07/28 02:59:22;;;;;;;;;3.00;1.67;;;;;-145.45;100.00;57426.63;5081452;27;45257;-73
2022/07/28 03:01:49;;;;;;;;;4.00;4.00;;;;;-145.45;100.00;57426.63;5090297;27;46354;-73
2022/07/28 03:04:15;;;;;;;;;2.00;2.00;;;;;-145.45;100.00;57426.63;5081696;27;45503;-73
2022/07/28 03:06:41;;;;;;;;;4.33;3.00;;;;;-145.45;100.00;57426.63;5097960;27;45249;-73
2022/07/28 03:09:10;;;;;;;;;3.00;2.67;;;;;-145.45;100.00;57426.63;5067061;27;47063;-73
2022/07/28 03:11:35;;;;;;;;;2.00;2.00;;;;;-145.45;100.00;57426.63;5088425;27;46417;-73
2022/07/28 03:14:01;;;;;;;;;2.00;2.00;;;;;-145.45;100.00;57426.63;5074702;27;45995;-73
2022/07/28 03:16:26;;;;;;;;;3.67;3.67;;;;;-145.45;100.00;57426.63;5086839;27;45790;-73
2022/07/28 03:18:51;;;;;;;;;2.00;2.00;;;;;-145.45;100.00;57426.63;5080682;27;45306;-73
2022/07/28 03:21:17;;;;;;;;;2.00;2.00;;;;;-145.45;100.00;57426.63;5086249;27;48073;-73
2022/07/28 03:23:46;;;;;;;;;2.00;2.00;;;;;-145.45;100.00;57426.63;5080449;27;45284;-73
2022/07/28 03:26:18;;;;;;;;;2.00;2.00;;;;;-145.45;100.00;57426.63;5085977;27;45264;-73
2022/07/28 03:28:46;;;;;;;;;1.33;1.33;;;;;-145.45;100.00;57426.63;5089858;27;45356;-73
2022/07/28 03:31:14;;;;;;;;;3.33;2.00;;;;;-145.45;100.00;57426.63;5074923;27;46802;-73
2022/07/28 03:33:40;;;;;;;;;4.33;2.00;;;;;-145.45;100.00;57426.63;5091416;27;45277;-73
2022/07/28 03:36:11;;;;;;;;;1.00;1.00;;;;;-145.45;100.00;57426.63;5084472;27;45843;-73
2022/07/28 03:38:42;;;;;;;;;2.00;2.00;;;;;-145.45;100.00;57426.63;5080611;28;45572;-73
2022/07/28 03:41:09;;;;;;;;;2.00;2.00;;;;;-145.45;100.00;57426.63;5080037;28;45988;-73
2022/07/28 03:43:36;;;;;;;;;3.00;2.00;;;;;-145.45;100.00;57426.63;5080255;28;45269;-73
2022/07/28 03:46:02;;;;;;;;;1.67;1.67;;;;;-145.45;100.00;57426.63;5080444;27;45246;-73
2022/07/28 03:48:31;;;;;;;;;2.00;2.00;;;;;-145.45;100.00;57426.63;5080358;28;45639;-73
2022/07/28 03:50:57;;;;;;;;;6.00;3.00;;;;;-145.45;100.00;57426.63;5080580;27;47993;-73
2022/07/28 03:53:25;;;;;;;;;3.00;2.00;;;;;-145.45;100.00;57426.63;5087885;27;45350;-73
2022/07/28 03:55:50;;;;;;;;;2.33;2.00;;;;;-145.45;100.00;57426.63;5080086;27;45588;-73
2022/07/28 03:58:18;;;;;;;;;2.00;2.00;;;;;-145.45;100.00;57426.63;5080164;28;45241;-73
2022/07/28 04:00:43;;;;;;;;;3.00;2.00;;;;;-145.45;100.00;57426.63;5080251;28;46678;-73
2022/07/28 04:03:08;;;;;;;;;2.00;2.00;;;;;-145.45;100.00;57426.63;5061877;28;45861;-73
2022/07/28 04:05:34;;;;;;;;;1.67;1.00;;;;;-145.45;100.00;57426.63;5080277;28;45403;-73
2022/07/28 04:07:59;;;;;;;;;2.67;1.67;;;;;-145.45;100.00;57426.63;5080143;28;45624;-73
2022/07/28 04:10:24;;;;;;;;;1.67;1.67;;;;;-145.45;100.00;57426.63;5079774;28;45256;-73
2022/07/28 04:12:53;;;;;;;;;2.33;2.00;;;;;-145.45;100.00;57426.63;5080105;27;45239;-73
2022/07/28 04:15:19;;;;;;;;;2.33;2.00;;;;;-145.45;100.00;57426.63;5080224;27;45367;-73
2022/07/28 04:17:47;;;;;;;;;2.33;1.67;;;;;-145.45;100.00;57426.63;5069969;28;47042;-73
2022/07/28 04:20:13;;;;;;;;;3.00;3.00;;;;;-145.45;100.00;57426.63;5079378;28;45415;-73
2022/07/28 04:22:39;;;;;;;;;4.00;2.00;;;;;-145.45;100.00;57426.63;5079844;28;45274;-73
2022/07/28 04:25:05;;;;;;;;;3.00;3.00;;;;;-145.45;100.00;57426.63;5079729;28;45238;-73
2022/07/28 04:27:30;;;;;;;;;2.33;2.33;;;;;-145.45;100.00;57426.63;5079675;28;45521;-73
2022/07/28 04:29:56;;;;;;;;;1.00;1.00;;;;;-145.45;100.00;57426.63;5079498;27;45332;-73
2022/07/28 04:32:21;;;;;;;;;2.00;2.00;;;;;-145.45;100.00;57426.63;5061379;28;45352;-73
2022/07/28 04:34:47;;;;;;;;;2.00;2.00;;;;;-145.45;100.00;57426.63;5084385;27;45343;-73
2022/07/28 04:37:13;;;;;;;;;4.00;4.00;;;;;-145.45;100.00;57426.63;5079750;28;45529;-73
2022/07/28 04:39:39;;;;;;;;;3.00;3.00;;;;;-145.45;100.00;57426.63;5079390;28;45383;-73
2022/07/28 04:42:05;;;;;;;;;4.00;2.67;;;;;-145.45;100.00;57426.63;5078423;28;45337;-72
2022/07/28 04:44:31;;;;;;;;;1.67;1.67;;;;;-145.45;100.00;57426.63;5079747;28;45340;-73
2022/07/28 04:46:56;;;;;;;;;2.67;2.67;;;;;-145.45;100.00;57426.63;5079583;28;45247;-73
2022/07/28 04:49:21;;;;;;;;;1.33;1.33;;;;;-145.45;100.00;57426.63;5076576;28;46677;-73
2022/07/28 04:51:49;;;;;;;;;3.00;3.00;;;;;-145.45;100.00;57426.63;5079766;28;45224;-73
2022/07/28 04:54:15;;;;;;;;;1.00;1.00;;;;;-145.45;100.00;57426.63;5079694;27;45399;-73
2022/07/28 04:56:41;;;;;;;;;1.67;1.33;;;;;-145.45;100.00;57426.63;5079193;28;45340;-73
2022/07/28 04:59:06;;;;;;;;;3.00;3.00;;;;;-145.45;100.00;57426.63;5060837;28;47036;-73
2022/07/28 05:01:32;;;;;;;;;5.00;5.00;;;;;-145.45;100.00;57426.63;5079424;28;45357;-73
2022/07/28 05:03:57;;;;;;;;;6.67;4.00;;;;;-145.45;100.00;57426.63;5079567;28;45562;-73
2022/07/28 05:06:22;;;;;;;;;5.67;5.00;;;;;-145.45;100.00;57426.63;5079623;28;45233;-73
2022/07/28 05:08:49;;;;;;;;;5.67;4.67;;;;;-145.45;100.00;57426.63;5061319;28;46639;-72
2022/07/28 05:11:15;;;;;;;;;5.33;5.00;;;;;-145.45;100.00;57426.63;5069672;28;45410;-73
2022/07/28 05:13:40;;;;;;;;;3.00;3.00;;;;;-145.45;100.00;57426.63;5076375;28;45386;-73
2022/07/28 05:16:05;;;;;;;;;3.00;2.00;;;;;-145.45;100.00;57426.63;5079507;28;45318;-72
2022/07/28 05:18:31;;;;;;;;;5.00;3.00;;;;;-145.45;100.00;57426.63;5079092;27;45228;-73
2022/07/28 05:20:56;;;;;;;;;3.67;2.00;;;;;-145.45;100.00;57426.63;5079312;28;45241;-73
2022/07/28 05:23:22;;;;;;;;;3.00;3.00;;;;;-145.45;100.00;57426.63;5060939;28;45698;-73
2022/07/28 05:25:47;;;;;;;;;4.00;3.00;;;;;-145.45;100.00;57426.63;5079023;27;45305;-73
2022/07/28 05:28:12;;;;;;;;;5.00;3.33;;;;;-145.45;100.00;57426.63;5078816;28;45260;-72
2022/07/28 05:30:38;;;;;;;;;1.00;1.00;;;;;-145.45;100.00;57426.63;5077641;28;45238;-72
2022/07/28 05:33:03;;;;;;;;;3.67;3.00;;;;;-145.45;100.00;57426.63;5081138;27;45237;-73
2022/07/28 05:35:29;;;;;;;;;3.33;3.00;;;;;-145.45;100.00;57426.63;5087809;27;45223;-73
2022/07/28 05:37:54;;;;;;;;;1.00;1.00;;;;;-145.45;100.00;57426.63;5082196;27;45217;-72
2022/07/28 05:40:19;;;;;;;;;2.00;2.00;;;;;-145.45;100.00;57426.63;5082451;28;45312;-73
2022/07/28 05:42:46;;;;;;;;;3.33;2.33;;;;;-145.45;100.00;57426.63;5078179;28;45313;-73
2022/07/28 05:45:12;;;;;;;;;5.67;3.00;;;;;-145.45;100.00;57426.63;5071502;28;46126;-73
2022/07/28 05:47:45;;;;;;;;;3.00;3.00;;;;;-145.45;100.00;57426.63;5099581;27;45669;-73
2022/07/28 05:50:11;;;;;;;;;4.67;3.00;;;;;-145.45;100.00;57426.63;5101909;27;45358;-73
2022/07/28 05:52:36;;;;;;;;;5.00;4.00;;;;;-145.45;100.00;57426.63;5084389;27;45427;-73
2022/07/28 05:55:03;;;;;;;;;5.00;3.33;;;;;-145.45;100.00;57426.63;5102529;27;45411;-73
2022/07/28 05:57:28;;;;;;;;;3.67;3.67;;;;;-145.45;100.00;57426.63;5102501;27;46540;-73
2022/07/28 05:59:53;;;;;;;;;2.67;2.33;;;;;-145.45;100.00;57426.63;5102541;27;45321;-72
2022/07/28 06:02:19;;;;;;;;;2.00;2.00;;;;;-145.45;100.00;57426.63;5102710;27;45322;-72
2022/07/28 06:04:44;;;;;;;;;3.67;3.33;;;;;-145.45;100.00;57426.63;5102699;27;45290;-72
2022/07/28 06:07:09;;;;;;;;;4.67;4.33;;;;;-145.45;100.00;57426.63;5102253;27;46286;-72
2022/07/28 06:09:35;;;;;;;;;6.33;4.00;;;;;-145.45;100.00;57426.63;5102354;27;45316;-72
2022/07/28 06:12:00;;;;;;;;;2.33;2.00;;;;;-145.45;100.00;57426.63;5102284;27;45249;-72
2022/07/28 06:14:26;;;;;;;;;4.00;4.00;;;;;-145.45;100.00;57426.63;5102488;27;45531;-73
2022/07/28 06:16:51;;;;;;;;;6.00;4.67;;;;;-145.45;100.00;57426.63;5102247;27;45360;-73
2022/07/28 06:19:17;;;;;;;;;3.00;3.00;;;;;-145.45;100.00;57426.63;5102290;27;48059;-72
2022/07/28 06:21:43;;;;;;;;;4.00;4.00;;;;;-145.45;100.00;57426.63;5102300;27;45213;-73
2022/07/28 06:24:08;;;;;;;;;5.00;3.67;;;;;-145.45;100.00;57426.63;5102187;27;45351;-73
2022/07/28 06:26:36;;;;;;;;;7.33;5.33;;;;;-145.45;100.00;57426.63;5097184;27;46103;-73
2022/07/28 06:29:02;;;;;;;;;6.00;6.00;;;;;-145.45;100.00;57426.63;5062484;28;45372;-73
2022/07/28 06:31:28;;;;;;;;;4.33;4.00;;;;;-145.45;100.00;57426.63;5081664;27;45257;-73
2022/07/28 06:33:53;;;;;;;;;4.00;4.00;;;;;-145.45;100.00;57426.63;5084243;27;45410;-73
2022/07/28 06:36:18;;;;;;;;;5.33;4.33;;;;;-145.45;100.00;57426.63;5083871;27;46371;-73
2022/07/28 06:38:44;;;;;;;;;3.00;3.00;;;;;-145.45;100.00;57426.63;5081607;28;45385;-73
2022/07/28 06:41:09;;;;;;;;;6.67;4.33;;;;;-145.45;100.00;57426.63;5081329;27;45570;-73
2022/07/28 06:43:34;;;;;;;;;5.00;4.00;;;;;-145.45;100.00;57426.63;5062728;28;46903;-73
2022/07/28 06:46:00;;;;;;;;;3.67;3.67;;;;;-145.45;100.00;57426.63;5081263;27;45366;-73
2022/07/28 06:48:25;;;;;;;;;4.00;2.67;;;;;-145.45;100.00;57426.63;5081384;27;45299;-73
2022/07/28 06:50:50;;;;;;;;;4.67;2.00;;;;;-145.45;100.00;57426.63;5081412;28;45402;-73
2022/07/28 06:53:16;;;;;;;;;4.33;2.67;;;;;-145.45;100.00;57426.63;5081308;27;45627;-73
2022/07/28 06:55:42;;;;;;;;;3.00;3.00;;;;;-145.45;100.00;57426.63;5080831;28;45184;-73
2022/07/28 06:58:07;;;;;;;;;4.67;4.00;;;;;-145.45;100.00;57426.63;5080863;28;45431;-73
2022/07/28 07:00:32;;;;;;;;;4.00;3.00;;;;;-145.45;100.00;57426.63;5081460;27;45409;-73
2022/07/28 07:02:58;;;;;;;;;9.00;5.67;;;;;-145.45;100.00;57426.63;5081148;28;45482;-74
2022/07/28 07:05:24;;;;;;;;;5.00;4.67;;;;;-145.45;100.00;57426.63;5081069;27;46176;-74
2022/07/28 07:07:50;;;;;;;;;8.33;4.00;;;;;-145.45;100.00;57426.63;5062942;28;45259;-73
2022/07/28 07:10:15;;;;;;;;;4.33;3.00;;;;;-145.45;100.00;57426.63;5080931;28;45196;-72
2022/07/28 07:12:40;;;;;;;;;7.33;6.00;;;;;-145.45;100.00;57426.63;5080943;28;45306;-72
2022/07/28 07:15:06;;;;;;;;;5.00;3.33;;;;;-145.45;100.00;57426.63;5080921;27;45233;-72
2022/07/28 07:17:32;;;;;;;;;6.67;5.67;;;;;-145.45;100.00;57426.63;5080819;27;45323;-72
2022/07/28 07:19:57;;;;;;;;;4.00;2.33;;;;;-145.45;100.00;57426.63;5081056;28;45262;-72
2022/07/28 07:22:23;;;;;;;;;7.00;7.00;;;;;-145.45;100.00;57426.63;5080864;28;45335;-74
2022/07/28 07:24:48;;;;;;;;;5.33;4.67;;;;;-145.45;100.00;57426.63;5080417;28;46038;-74
2022/07/28 07:27:14;;;;;;;;;3.00;3.00;;;;;-145.45;100.00;57426.63;5080740;28;45363;-74
2022/07/28 07:29:39;;;;;;;;;5.00;5.00;;;;;-145.45;100.00;57426.63;5080772;27;45725;-74
2022/07/28 07:32:05;;;;;;;;;4.00;4.00;;;;;-145.45;100.00;57426.63;5080662;28;45317;-74
2022/07/28 07:34:30;;;;;;;;;7.00;4.67;;;;;-145.45;100.00;57426.63;5066135;27;46924;-74
2022/07/28 07:36:56;;;;;;;;;4.00;3.00;;;;;-145.45;100.00;57426.63;5080478;28;46147;-74
2022/07/28 07:39:21;;;;;;;;;4.00;4.00;;;;;-145.45;100.00;57426.63;5080692;27;45331;-72
2022/07/28 07:41:46;;;;;;;;;4.00;3.67;;;;;-145.45;100.00;57426.63;5080294;27;45226;-72
2022/07/28 07:44:12;;;;;;;;;4.00;4.00;;;;;-145.45;100.00;57426.63;5080318;28;45229;-72
2022/07/28 07:46:38;;;;;;;;;4.33;3.67;;;;;-145.45;100.00;57426.63;5080605;27;45224;-72
2022/07/28 07:49:04;;;;;;;;;4.00;4.00;;;;;-145.45;100.00;57426.63;5080611;27;45173;-72
2022/07/28 07:51:29;;;;;;;;;5.33;5.00;;;;;-145.45;100.00;57426.63;5080270;28;46258;-72
2022/07/28 07:53:54;;;;;;;;;7.00;6.33;;;;;-145.45;100.00;57426.63;5080239;28;46096;-72
2022/07/28 07:56:20;;;;;;;;;5.00;5.00;;;;;-145.45;100.00;57426.63;5079208;27;45670;-72
2022/07/28 07:58:45;;;;;;;;;7.67;5.67;;;;;-145.45;100.00;57426.63;5080492;28;45420;-72
2022/07/28 08:01:11;;;;;;;;;6.00;5.67;;;;;-145.45;100.00;57426.63;5080228;28;45474;-72
2022/07/28 08:03:37;;;;;;;;;7.33;5.00;;;;;-145.45;100.00;57426.63;5080090;28;45548;-72
2022/07/28 08:06:02;;;;;;;;;6.00;5.00;;;;;-145.45;100.00;57426.63;5080124;28;45351;-72
2022/07/28 08:08:28;;;;;;;;;6.00;6.00;;;;;-145.45;100.00;57426.63;5080312;27;45265;-72
2022/07/28 08:10:53;;;;;;;;;6.50;6.00;;;;;-145.45;100.00;57426.63;5079804;28;45450;-72
2022/07/28 08:13:22;;;;;;;;;2.75;2.75;;;;;-145.45;100.00;57426.63;5080012;27;46304;-72
2022/07/28 08:15:48;;;;;;;;;5.50;4.00;;;;;-145.45;100.00;57426.63;5080100;28;45260;-72
2022/07/28 08:18:14;;;;;;;;;5.00;4.00;;;;;-145.45;100.00;57426.63;5079325;28;45571;-72
2022/07/28 08:20:39;;;;;;;;;5.75;5.25;;;;;-145.45;100.00;57426.63;5079866;27;45228;-72
2022/07/28 08:23:05;;;;;;;;;4.25;4.00;;;;;-145.45;100.00;57426.63;5079746;27;46101;-72
2022/07/28 08:25:33;;;;;;;;;3.00;1.25;;;;;-145.45;100.00;57426.63;5079654;27;45171;-72
2022/07/28 08:27:58;;;;;;;;;6.50;4.50;;;;;-145.45;100.00;57426.63;5079826;28;45362;-72
2022/07/28 08:30:24;;;;;;;;;7.00;6.00;;;;;-145.45;100.00;57426.63;5061721;28;48039;-71
2022/07/28 08:32:49;;;;;;;;;6.50;5.50;;;;;-145.45;100.00;57426.63;5060941;28;46873;-72
2022/07/28 08:35:15;;;;;;;;;4.25;3.00;;;;;-145.45;100.00;57426.63;5084010;27;45303;-73
2022/07/28 08:37:40;;;;;;;;;4.00;4.00;;;;;-145.45;100.00;57426.63;5079596;28;45344;-72
2022/07/28 08:40:13;;;;;;;;;17.00;13.75;;;;;-145.45;100.00;57426.63;5079640;28;45490;-72
2022/07/28 08:43:14;;;;;;;;;6.50;5.50;;;;;-145.45;100.00;57426.63;5079368;28;45736;-72
2022/07/28 08:45:45;;;;;;;;;3.00;2.00;;;;;-145.45;100.00;57426.63;5079620;27;45240;-72
2022/07/28 08:48:12;;;;;;;;;10.75;5.00;;;;;-145.45;100.00;57426.63;5079855;27;45338;-72
2022/07/28 08:50:38;;;;;;;;;8.50;5.00;;;;;-145.45;100.00;57426.63;5079478;28;45573;-73
2022/07/28 08:53:05;;;;;;;;;5.50;4.50;;;;;-145.45;100.00;57426.63;5079645;28;45389;-72
2022/07/28 08:55:30;;;;;;;;;5.60;4.40;;;;;-145.45;100.00;57426.63;5079007;28;45308;-72
2022/07/28 08:57:58;;;;;;;;;5.50;5.00;;;;;-145.45;100.00;57426.63;5079673;28;45297;-72
2022/07/28 09:00:24;;;;;;;;;5.00;3.50;;;;;-145.45;100.00;57426.63;5079298;28;46342;-73
2022/07/28 09:02:50;;;;;;;;;3.50;3.50;;;;;-145.45;100.00;57426.63;5079255;27;45278;-72
2022/07/28 09:05:16;;;;;;;;;4.20;3.60;;;;;-145.45;100.00;57426.63;5060623;27;45375;-72
2022/07/28 09:07:43;;;;;;;;;9.50;4.25;;;;;-145.45;100.00;57426.63;5064327;28;45339;-72
2022/07/28 09:10:10;;;;;;;;;10.00;6.25;;;;;-145.45;100.00;57426.63;5082549;27;45446;-72
2022/07/28 09:12:38;;;;;;;;;3.50;3.25;;;;;-145.45;100.00;57426.63;5082620;28;46343;-73
2022/07/28 09:15:05;;;;;;;;;7.40;4.60;;;;;-145.45;100.00;57426.63;5064006;28;45284;-73
2022/07/28 09:17:31;;;;;;;;;5.00;4.50;;;;;-145.45;100.00;57426.63;5083004;28;45361;-73
2022/07/28 09:19:57;;;;;;;;;3.25;3.00;;;;;-145.45;100.00;57426.63;5082749;28;45308;-73
2022/07/28 09:22:22;;;;;;;;;4.75;3.25;;;;;-145.45;100.00;57426.63;5082610;27;46274;-73
2022/07/28 09:24:48;;;;;;;;;4.50;4.50;;;;;-145.45;100.00;57426.63;5082452;28;45511;-73
2022/07/28 09:27:14;;;;;;;;;5.50;4.75;;;;;-145.45;100.00;57426.63;5082716;28;45404;-73
2022/07/28 09:29:44;;;;;;;;;3.60;3.60;;;;;-145.45;100.00;57426.63;5082653;28;45533;-73
2022/07/28 09:32:12;;;;;;;;;2.40;2.40;;;;;-145.45;100.00;57426.63;5082499;27;45716;-73
2022/07/28 09:34:46;;;;;;;;;4.60;4.00;;;;;-145.45;100.00;57426.63;5087074;27;45172;-74
2022/07/28 09:37:26;;;;;;;;;2.80;2.80;;;;;-145.45;100.00;57426.63;5082462;27;45445;-74
2022/07/28 09:39:56;;;;;;;;;4.20;3.00;;;;;-145.45;100.00;57426.63;5089291;27;45296;-74
2022/07/28 09:42:22;;;;;;;;;6.40;4.20;;;;;-145.45;100.00;57426.63;5102635;27;45517;-74
2022/07/28 09:45:06;;;;;;;;;3.00;3.00;;;;;-145.45;100.00;57426.63;5102961;27;45338;-73
2022/07/28 09:47:33;;;;;;;;;3.20;3.20;;;;;-145.45;100.00;57426.63;5102963;27;45374;-73
2022/07/28 09:49:59;;;;;;;;;4.40;3.60;;;;;-145.45;100.00;57426.63;5102904;27;45203;-73
2022/07/28 09:52:32;;;;;;;;;3.40;3.00;;;;;-145.45;100.00;57426.63;5102724;27;46105;-74
2022/07/28 09:55:03;;;;;;;;;3.00;3.00;;;;;-145.45;100.00;57426.63;5102488;27;45208;-74
2022/07/28 09:57:29;;;;;;;;;2.40;2.40;;;;;-145.45;100.00;57426.63;5102605;27;45269;-73
2022/07/28 09:59:56;;;;;;;;;5.00;3.00;;;;;-145.45;100.00;57426.63;5102703;27;45453;-74
2022/07/28 10:02:26;;;;;;;;;4.20;3.00;;;;;-145.45;100.00;57426.63;5083748;27;45376;-74
2022/07/28 10:04:52;;;;;;;;;2.80;2.80;;;;;-145.45;100.00;57426.63;5083529;27;45330;-74
2022/07/28 10:07:18;;;;;;;;;1.00;1.00;;;;;-145.45;100.00;57426.63;5084290;27;45383;-74
2022/07/28 10:09:58;;;;;;;;;4.00;2.00;;;;;-145.45;100.00;57426.63;5101056;27;45525;-74
2022/07/28 10:12:27;;;;;;;;;3.60;2.80;;;;;-145.45;100.00;57426.63;5102283;27;45291;-74
2022/07/28 10:14:54;;;;;;;;;4.80;2.40;;;;;-145.45;100.00;57426.63;5102275;27;45543;-74
2022/07/28 10:17:27;;;;;;;;;1.80;1.80;;;;;-145.45;100.00;57426.63;5101848;27;45380;-74
2022/07/28 10:19:53;;;;;;;;;4.60;3.00;;;;;-145.45;100.00;57426.63;5101773;27;45338;-74
2022/07/28 10:22:21;;;;;;;;;3.40;3.40;;;;;-145.45;100.00;57426.63;5101344;27;45300;-74
2022/07/28 10:24:51;;;;;;;;;2.00;2.00;;;;;-145.45;100.00;57426.63;5102018;27;45268;-74
2022/07/28 10:27:19;;;;;;;;;2.00;2.00;;;;;-145.45;100.00;57426.63;5080493;28;45213;-74
2022/07/28 10:29:44;;;;;;;;;1.80;1.80;;;;;-145.45;100.00;57426.63;5081563;28;45356;-73
2022/07/28 10:32:09;;;;;;;;;0.50;0.50;;;;;-145.45;100.00;57426.63;5081421;27;46339;-74
2022/07/28 10:34:47;;;;;;;;;2.00;2.00;;;;;-145.45;100.00;57426.63;5086143;27;45313;-74
2022/07/28 10:37:20;;;;;;;;;1.40;1.40;;;;;-145.45;100.00;57426.63;5081697;27;45283;-73
2022/07/28 10:40:01;;;;;;;;;1.00;1.00;;;;;-145.45;100.00;57426.63;5087790;27;45323;-73
2022/07/28 10:42:27;;;;;;;;;1.60;1.60;;;;;-145.45;100.00;57426.63;5086192;27;45329;-74
2022/07/28 10:44:54;;;;;;;;;1.00;1.00;;;;;-145.45;100.00;57426.63;5081671;27;45409;-74
2022/07/28 10:47:20;;;;;;;;;2.80;1.20;;;;;-145.45;100.00;57426.63;5081550;28;45336;-74
2022/07/28 10:49:47;;;;;;;;;1.00;1.00;;;;;-145.45;100.00;57426.63;5063161;28;46067;-74
2022/07/28 10:52:16;;;;;;;;;2.00;2.00;;;;;-145.45;100.00;57426.63;5081173;27;45680;-74
2022/07/28 10:54:49;;;;;;;;;2.40;2.00;;;;;-145.45;100.00;57426.63;5081373;28;45619;-74
2022/07/28 10:57:16;;;;;;;;;2.00;2.00;;;;;-145.45;100.00;57426.63;5081305;28;45242;-74
2022/07/28 10:59:53;;;;;;;;;2.20;2.20;;;;;-145.45;100.00;57426.63;5081287;28;45265;-74
2022/07/28 11:02:53;;;;;;;;;2.20;2.20;;;;;-145.45;100.00;57426.63;5080941;27;45441;-73
2022/07/28 11:05:30;;;;;;;;;2.20;1.20;;;;;-145.45;100.00;57426.63;5081161;27;45455;-73
2022/07/28 11:07:57;;;;;;;;;2.00;2.00;;;;;-145.45;100.00;57426.63;5063033;28;45388;-73
2022/07/28 11:10:23;;;;;;;;;2.00;2.00;;;;;-145.45;100.00;57426.63;5080511;27;45301;-73